To NAV CANADA Home Page Login to a new session Search on AWWS site Feedback and Comments Disclaimer Vers la page française équivalente Tips FAQ What's new on the site To the Forecasts and Observations / NOTAM section To "File a Flight Plan" website Publications and other links Update of the User's profile FIC Telephone Numbers My Weather Data Folder Route Weather Data Regional Weather Data Local Weather Data To the Forecasts and Observations / NOTAM section
Request Generated 09/30/2016 at 11:43:11 UTC . Weather information available at that time is displayed.

METAR/TAF

MEDICINE HAT/AB    (show WxCam)

METAR CYXH 301100Z AUTO VRB02KT 9SM CLR 07/06 A2997 RMK SLP155=
SPECI CYXH 301047Z AUTO 35003KT 6SM BR CLR 07/07 A2997 RMK SLP155=
SPECI CYXH 301033Z AUTO 36002KT 5SM BR CLR 07/07 A2997 RMK SLP155=
METAR CYXH 301000Z AUTO 34003KT 9SM CLR 08/08 A2997 RMK SLP154=
METAR CYXH 300900Z AUTO 34004KT 9SM CLR 09/08 A2998 RMK SLP159=

TAF CYXH 301138Z 3012/3024 VRB03KT P6SM SKC TEMPO 3012/3015 2SM BR
PROB30 3012/3015 1/2SM FG
FM301600 24008KT P6SM FEW140
RMK FCST BASED ON AUTO OBS. NXT FCST BY 301800Z=
Your time UTC time
Weather data provided by Environment Canada and NAV CANADA